createdAt,value
2023-03-18T00:01:41.984Z,100068.91
2023-03-18T00:04:11.636Z,100060.09
2023-03-18T00:06:41.267Z,100059.44
2023-03-18T00:09:12.581Z,100061.16
2023-03-18T00:11:42.225Z,100063.00
2023-03-18T00:14:11.866Z,100058.41
2023-03-18T00:16:41.810Z,100052.97
2023-03-18T00:19:11.644Z,100057.50
2023-03-18T00:21:41.292Z,100047.19
2023-03-18T00:24:12.451Z,100046.31
2023-03-18T00:26:42.701Z,100045.50
2023-03-18T00:29:12.218Z,100039.63
2023-03-18T00:31:41.884Z,100036.63
2023-03-18T00:34:12.524Z,100033.97
2023-03-18T00:36:42.352Z,100034.00
2023-03-18T00:39:13.401Z,100029.88
2023-03-18T00:41:43.010Z,100027.19
2023-03-18T00:44:14.927Z,100024.63
2023-03-18T00:46:44.511Z,100021.72
2023-03-18T00:49:14.436Z,100030.47
2023-03-18T00:51:44.164Z,100027.94
2023-03-18T00:54:18.757Z,100015.84
2023-03-18T00:56:48.445Z,100011.09
2023-03-18T00:59:18.511Z,100024.28
2023-03-18T01:01:48.643Z,100017.19
2023-03-18T01:04:18.860Z,100018.94
2023-03-18T01:06:48.413Z,100007.44
2023-03-18T01:09:17.968Z,100010.56
2023-03-18T01:11:47.793Z,100014.84
2023-03-18T01:14:15.848Z,100005.88
2023-03-18T01:16:44.995Z,100013.09
2023-03-18T01:19:16.152Z,100005.94
2023-03-18T01:21:46.386Z,100005.94
2023-03-18T01:24:15.915Z,100007.00
2023-03-18T01:26:45.580Z,100002.88
2023-03-18T01:29:15.452Z,99998.50
2023-03-18T01:31:45.738Z,100000.09
2023-03-18T01:34:16.613Z,100000.06
2023-03-18T01:36:46.723Z,99997.50
2023-03-18T01:39:17.703Z,99997.44
2023-03-18T01:41:48.997Z,99993.00
2023-03-18T01:44:23.640Z,99997.47
2023-03-18T01:46:54.686Z,100001.72
2023-03-18T01:49:42.988Z,99992.00
2023-03-18T01:52:27.314Z,99991.19
2023-03-18T01:55:04.629Z,99992.06
2023-03-18T01:57:35.943Z,99995.38
2023-03-18T02:00:08.044Z,99991.97
2023-03-18T02:02:43.766Z,99999.16
2023-03-18T02:05:19.339Z,99991.94
2023-03-18T02:07:49.566Z,99990.44
2023-03-18T02:10:28.231Z,99993.84
2023-03-18T02:13:08.072Z,99983.22
2023-03-18T02:16:07.083Z,99978.94
2023-03-18T02:18:45.887Z,99978.38
2023-03-18T02:21:46.291Z,99974.66
2023-03-18T02:24:57.930Z,99989.56
2023-03-18T02:27:35.520Z,99979.31
2023-03-18T02:30:24.187Z,99972.22
2023-03-18T02:32:56.202Z,99972.25
2023-03-18T02:35:28.525Z,99973.09
2023-03-18T02:37:56.358Z,99960.72
2023-03-18T02:40:34.828Z,99963.28
2023-03-18T02:43:42.727Z,99965.13
2023-03-18T02:46:47.741Z,99958.16
2023-03-18T02:49:20.268Z,99955.28
2023-03-18T02:51:50.516Z,99968.47
2023-03-18T02:54:29.390Z,99959.81
2023-03-18T02:56:59.076Z,99959.31
2023-03-18T02:59:28.786Z,99965.47
2023-03-18T03:01:58.360Z,99963.97
2023-03-18T03:04:28.810Z,99960.22
2023-03-18T03:06:58.298Z,99956.81
2023-03-18T03:09:26.252Z,99964.75
2023-03-18T03:11:55.084Z,99968.25
2023-03-18T03:14:22.949Z,99964.16
2023-03-18T03:16:52.025Z,99959.72
2023-03-18T03:19:21.588Z,99956.13
2023-03-18T03:21:49.435Z,99959.72
2023-03-18T03:24:17.284Z,99959.03
2023-03-18T03:26:45.170Z,99968.25
2023-03-18T03:29:13.052Z,99965.06
2023-03-18T03:31:42.575Z,99964.94
2023-03-18T03:34:10.890Z,99962.47
2023-03-18T03:36:40.123Z,99976.41
2023-03-18T03:39:08.029Z,99984.44
2023-03-18T03:41:35.940Z,99994.25
2023-03-18T03:44:03.795Z,99993.59
2023-03-18T03:46:32.965Z,99997.09
2023-03-18T03:49:00.823Z,99998.84
2023-03-18T03:51:29.431Z,99999.66
2023-03-18T03:53:58.227Z,99998.66
2023-03-18T03:56:26.101Z,99999.50
2023-03-18T03:58:53.852Z,99992.47
2023-03-18T04:01:21.705Z,99989.88
2023-03-18T04:03:49.803Z,99996.06
2023-03-18T04:06:18.757Z,100000.16
2023-03-18T04:08:46.562Z,100000.97
2023-03-18T04:11:15.525Z,100002.56
2023-03-18T04:13:43.502Z,100001.72
2023-03-18T04:16:12.543Z,100005.91
2023-03-18T04:18:41.590Z,100013.00
2023-03-18T04:21:10.551Z,99999.00
2023-03-18T04:23:39.396Z,100004.19
2023-03-18T04:26:07.336Z,100006.03
2023-03-18T04:28:35.402Z,100009.34
2023-03-18T04:31:04.322Z,100002.19
2023-03-18T04:33:34.396Z,100009.38
2023-03-18T04:36:02.323Z,100011.09
2023-03-18T04:38:31.149Z,100011.09
2023-03-18T04:41:00.743Z,100010.19
2023-03-18T04:43:28.837Z,100016.25
2023-03-18T04:45:56.741Z,100030.31
2023-03-18T04:48:25.582Z,100024.91
2023-03-18T04:50:55.127Z,100025.00
2023-03-18T04:53:24.654Z,100029.31
2023-03-18T04:55:53.460Z,100028.41
2023-03-18T04:58:21.416Z,100030.97
2023-03-18T05:00:49.413Z,100029.97
2023-03-18T05:03:17.256Z,100036.06
2023-03-18T05:05:46.084Z,100039.84
2023-03-18T05:08:14.561Z,100042.94
2023-03-18T05:10:44.070Z,100045.56
2023-03-18T05:13:13.557Z,100049.00
2023-03-18T05:15:42.488Z,100049.75
2023-03-18T05:18:12.851Z,100056.66
2023-03-18T05:20:41.904Z,100055.66
2023-03-18T05:23:10.653Z,100055.50
2023-03-18T05:25:39.392Z,100056.41
2023-03-18T05:28:08.002Z,100052.03
2023-03-18T05:30:40.510Z,100058.72
2023-03-18T05:33:08.304Z,100058.78
2023-03-18T05:35:39.425Z,100057.25
2023-03-18T05:38:08.204Z,100055.94
2023-03-18T05:40:37.586Z,100062.06
2023-03-18T05:43:07.408Z,100059.34
2023-03-18T05:45:39.885Z,100066.72
2023-03-18T05:48:10.911Z,100061.88
2023-03-18T05:50:43.755Z,100065.94
2023-03-18T05:53:13.705Z,100056.72
2023-03-18T05:55:44.042Z,100067.50
2023-03-18T05:58:12.755Z,100073.97
2023-03-18T06:00:41.650Z,100072.84
2023-03-18T06:03:09.461Z,100074.16
2023-03-18T06:05:38.216Z,100074.81
2023-03-18T06:08:06.816Z,100076.00
2023-03-18T06:10:35.758Z,100082.25
2023-03-18T06:13:06.008Z,100087.34
2023-03-18T06:15:35.436Z,100100.06
2023-03-18T06:18:05.261Z,100105.75
2023-03-18T06:20:35.572Z,100110.06
2023-03-18T06:23:05.436Z,100102.19
2023-03-18T06:25:34.515Z,100091.34
2023-03-18T06:28:04.386Z,100100.53
2023-03-18T06:30:34.709Z,100100.66
2023-03-18T06:33:03.551Z,100103.88
2023-03-18T06:35:32.534Z,100113.16
2023-03-18T06:38:02.970Z,100109.38
2023-03-18T06:40:32.495Z,100112.38
2023-03-18T06:43:01.959Z,100116.00
2023-03-18T06:45:31.552Z,100123.13
2023-03-18T06:48:01.134Z,100125.56
2023-03-18T06:50:32.209Z,100120.06
2023-03-18T06:53:00.943Z,100120.56
2023-03-18T06:55:29.633Z,100137.31
2023-03-18T06:58:00.349Z,100130.56
2023-03-18T07:00:29.469Z,100135.66
2023-03-18T07:02:59.819Z,100136.00
2023-03-18T07:05:29.445Z,100134.25
2023-03-18T07:07:58.616Z,100136.66
2023-03-18T07:10:30.687Z,100141.50
2023-03-18T07:13:00.340Z,100147.34
2023-03-18T07:15:29.042Z,100144.00
2023-03-18T07:18:00.580Z,100145.19
2023-03-18T07:20:30.210Z,100147.50
2023-03-18T07:22:59.426Z,100145.56
2023-03-18T07:25:30.279Z,100134.03
2023-03-18T07:28:00.537Z,100123.44
2023-03-18T07:30:30.597Z,100123.44
2023-03-18T07:33:00.520Z,100132.34
2023-03-18T07:35:29.360Z,100133.66
2023-03-18T07:37:58.935Z,100129.13
2023-03-18T07:40:28.382Z,100145.69
2023-03-18T07:42:57.065Z,100142.97
2023-03-18T07:45:25.824Z,100146.56
2023-03-18T07:47:55.542Z,100144.66
2023-03-18T07:50:25.232Z,100146.91
2023-03-18T07:52:54.124Z,100148.22
2023-03-18T07:55:22.816Z,100143.69
2023-03-18T07:57:51.811Z,100150.75
2023-03-18T08:00:22.395Z,100155.06
2023-03-18T08:02:51.165Z,100156.94
2023-03-18T08:05:20.404Z,100152.28
2023-03-18T08:07:49.258Z,100153.44
2023-03-18T08:10:18.133Z,100151.81
2023-03-18T08:12:53.158Z,100148.78
2023-03-18T08:15:23.903Z,100147.41
2023-03-18T08:17:53.981Z,100150.63
2023-03-18T08:20:23.312Z,100153.00
2023-03-18T08:22:52.978Z,100155.66
2023-03-18T08:25:23.699Z,100155.66
2023-03-18T08:27:53.675Z,100153.00
2023-03-18T08:30:25.455Z,100148.91
2023-03-18T08:32:55.711Z,100150.44
2023-03-18T08:35:25.937Z,100153.88
2023-03-18T08:37:56.389Z,100148.78
2023-03-18T08:40:26.198Z,100150.28
2023-03-18T08:42:56.049Z,100134.88
2023-03-18T08:45:27.387Z,100152.84
2023-03-18T08:47:57.109Z,100158.13
2023-03-18T08:50:29.812Z,100155.19
2023-03-18T08:53:00.746Z,100151.88
2023-03-18T08:55:39.913Z,100143.81
2023-03-18T08:58:09.470Z,100152.84
2023-03-18T09:00:43.074Z,100141.22
2023-03-18T09:03:13.799Z,100139.75
2023-03-18T09:05:43.917Z,100144.25
2023-03-18T09:08:13.656Z,100147.16
2023-03-18T09:10:42.624Z,100141.19
2023-03-18T09:13:11.266Z,100145.25
2023-03-18T09:15:42.296Z,100133.22
2023-03-18T09:18:12.629Z,100128.25
2023-03-18T09:20:42.634Z,100128.78
2023-03-18T09:23:12.699Z,100134.72
2023-03-18T09:25:45.147Z,100141.09
2023-03-18T09:28:15.377Z,100135.72
2023-03-18T09:30:44.743Z,100129.84
2023-03-18T09:33:14.281Z,100138.84
2023-03-18T09:35:43.411Z,100135.00
2023-03-18T09:38:19.987Z,100133.28
2023-03-18T09:41:16.824Z,100133.22
2023-03-18T09:44:14.966Z,100131.22
2023-03-18T09:47:37.101Z,100128.28
2023-03-18T09:50:50.369Z,100119.09
2023-03-18T09:53:42.965Z,100122.34
2023-03-18T09:56:25.180Z,100121.41
2023-03-18T09:59:17.441Z,100117.66
2023-03-18T10:01:54.486Z,100117.22
2023-03-18T10:04:44.633Z,100114.97
2023-03-18T10:07:19.078Z,100113.34
2023-03-18T10:09:57.203Z,100110.69
2023-03-18T10:12:46.449Z,100112.59
2023-03-18T10:15:41.564Z,100113.91
2023-03-18T10:18:34.612Z,100100.16
2023-03-18T10:21:31.977Z,100113.53
2023-03-18T10:24:27.511Z,100114.34
2023-03-18T10:27:51.867Z,100111.22
2023-03-18T10:30:55.063Z,100102.22
2023-03-18T10:33:56.771Z,100099.84
2023-03-18T10:36:40.203Z,100105.84
2023-03-18T10:39:22.691Z,100109.72
2023-03-18T10:41:56.267Z,100105.47
2023-03-18T10:44:37.747Z,100104.09
2023-03-18T10:47:21.206Z,100102.81
2023-03-18T10:50:47.954Z,100098.81
2023-03-18T10:53:27.367Z,100093.13
2023-03-18T10:56:05.501Z,100089.09
2023-03-18T10:58:36.982Z,100091.28
2023-03-18T11:01:10.538Z,100089.84
2023-03-18T11:03:59.250Z,100081.22
2023-03-18T11:06:55.882Z,100078.38
2023-03-18T11:09:33.211Z,100078.00
2023-03-18T11:12:13.353Z,100078.47
2023-03-18T11:14:43.050Z,100071.66
2023-03-18T11:17:35.915Z,100065.59
2023-03-18T11:20:24.701Z,100068.03
2023-03-18T11:22:57.728Z,100056.47
2023-03-18T11:25:29.342Z,100054.91
2023-03-18T11:28:05.983Z,100060.13
2023-03-18T11:30:53.303Z,100052.41
2023-03-18T11:33:27.723Z,100048.91
2023-03-18T11:36:05.348Z,100041.09
2023-03-18T11:38:38.014Z,100034.19
2023-03-18T11:41:17.707Z,100034.25
2023-03-18T11:44:06.262Z,100036.22
2023-03-18T11:46:58.754Z,100027.31
2023-03-18T11:49:29.583Z,100020.72
2023-03-18T11:52:42.515Z,100030.06
2023-03-18T11:55:27.981Z,100017.59
2023-03-18T11:58:33.481Z,100016.69
2023-03-18T12:01:19.999Z,100023.78
2023-03-18T12:04:04.320Z,100013.31
2023-03-18T12:07:10.659Z,100024.22
2023-03-18T12:10:15.269Z,100015.25
2023-03-18T12:13:09.929Z,100017.41
2023-03-18T12:16:29.567Z,100011.56
2023-03-18T12:19:22.239Z,100003.13
2023-03-18T12:22:26.068Z,100001.44
2023-03-18T12:25:18.545Z,99994.31
2023-03-18T12:28:24.871Z,99997.34
2023-03-18T12:31:28.081Z,99999.28
2023-03-18T12:34:03.902Z,99993.25
2023-03-18T12:36:54.353Z,99988.47
2023-03-18T12:39:58.609Z,99995.72
2023-03-18T12:42:55.562Z,100004.22
2023-03-18T12:45:33.387Z,99988.47
2023-03-18T12:48:36.801Z,99988.25
2023-03-18T12:51:19.144Z,99979.63
2023-03-18T12:53:57.007Z,99989.41
2023-03-18T12:56:32.869Z,99983.84
2023-03-18T12:59:30.560Z,99974.41
2023-03-18T13:02:23.841Z,99985.59
2023-03-18T13:05:02.297Z,99981.81
2023-03-18T13:08:27.453Z,99985.28
2023-03-18T13:12:03.968Z,99977.56
2023-03-18T13:15:22.727Z,99976.91
2023-03-18T13:18:00.584Z,99971.19
2023-03-18T13:20:37.919Z,99975.59
2023-03-18T13:24:16.170Z,99972.84
2023-03-18T13:27:32.492Z,99969.28
2023-03-18T13:31:04.729Z,99969.19
2023-03-18T13:34:10.156Z,99959.25
2023-03-18T13:37:04.997Z,99960.13
2023-03-18T13:40:48.404Z,99967.38
2023-03-18T13:43:22.330Z,99961.00
2023-03-18T13:45:55.429Z,99965.56
2023-03-18T13:48:35.550Z,99963.22
2023-03-18T13:51:40.050Z,99958.31
2023-03-18T13:54:19.361Z,99960.97
2023-03-18T13:56:56.039Z,99949.19
2023-03-18T13:59:36.657Z,99942.06
2023-03-18T14:02:47.907Z,99944.47
2023-03-18T14:05:35.385Z,99943.91
2023-03-18T14:08:33.555Z,99943.34
2023-03-18T14:11:23.009Z,99931.63
2023-03-18T14:14:06.147Z,99928.78
2023-03-18T14:16:46.566Z,99931.53
2023-03-18T14:19:32.553Z,99929.97
2023-03-18T14:22:30.785Z,99915.63
2023-03-18T14:25:18.092Z,99920.59
2023-03-18T14:27:58.419Z,99918.81
2023-03-18T14:30:32.286Z,99919.50
2023-03-18T14:33:25.005Z,99920.44
2023-03-18T14:36:00.141Z,99927.97
2023-03-18T14:38:32.961Z,99920.59
2023-03-18T14:41:02.369Z,99910.09
2023-03-18T14:43:46.931Z,99911.56
2023-03-18T14:46:22.606Z,99910.63
2023-03-18T14:48:54.539Z,99912.00
2023-03-18T14:51:26.996Z,99904.94
2023-03-18T14:54:06.375Z,99899.88
2023-03-18T14:56:42.282Z,99906.38
2023-03-18T14:59:17.522Z,99900.25
2023-03-18T15:01:54.162Z,99892.69
2023-03-18T15:04:27.103Z,99898.69
2023-03-18T15:07:00.384Z,99900.88
2023-03-18T15:09:32.615Z,99894.84
2023-03-18T15:12:18.256Z,99896.91
2023-03-18T15:14:46.556Z,99889.44
2023-03-18T15:17:17.864Z,99896.38
2023-03-18T15:19:46.579Z,99887.31
2023-03-18T15:22:28.669Z,99884.59
2023-03-18T15:25:08.391Z,99883.69
2023-03-18T15:27:38.247Z,99874.41
2023-03-18T15:30:25.296Z,99880.56
2023-03-18T15:33:06.052Z,99873.72
2023-03-18T15:35:34.314Z,99878.59
2023-03-18T15:38:17.463Z,99881.34
2023-03-18T15:40:55.557Z,99886.38
2023-03-18T15:43:42.742Z,99884.94
2023-03-18T15:46:24.986Z,99886.03
2023-03-18T15:49:03.136Z,99887.13
2023-03-18T15:51:48.113Z,99888.81
2023-03-18T15:54:40.680Z,99900.31
2023-03-18T15:57:41.841Z,99893.69
2023-03-18T16:00:13.641Z,99901.13
2023-03-18T16:02:42.328Z,99902.41
2023-03-18T16:05:25.634Z,99894.16
2023-03-18T16:07:55.395Z,99907.06
2023-03-18T16:10:26.571Z,99911.50
2023-03-18T16:13:01.507Z,99905.91
2023-03-18T16:15:30.162Z,99909.66
2023-03-18T16:17:58.842Z,99919.84
2023-03-18T16:20:30.335Z,99907.66
2023-03-18T16:22:59.928Z,99914.16
2023-03-18T16:25:29.284Z,99922.03
2023-03-18T16:28:01.460Z,99919.91
2023-03-18T16:30:33.732Z,99922.00
2023-03-18T16:33:01.472Z,99918.13
2023-03-18T16:35:34.845Z,99926.00
2023-03-18T16:38:03.112Z,99918.44
2023-03-18T16:40:32.669Z,99923.78
2023-03-18T16:43:01.762Z,99919.13
2023-03-18T16:45:34.642Z,99924.59
2023-03-18T16:48:07.166Z,99925.53
2023-03-18T16:50:42.845Z,99919.69
2023-03-18T16:53:29.794Z,99929.22
2023-03-18T16:56:10.435Z,99931.03
2023-03-18T16:58:39.135Z,99922.19
2023-03-18T17:01:08.727Z,99922.06
2023-03-18T17:03:38.183Z,99917.66
2023-03-18T17:06:08.954Z,99920.50
2023-03-18T17:08:38.510Z,99928.31
2023-03-18T17:11:08.102Z,99926.38
2023-03-18T17:13:38.699Z,99926.72
2023-03-18T17:16:19.533Z,99928.44
2023-03-18T17:18:49.660Z,99924.44
2023-03-18T17:21:18.412Z,99930.56
2023-03-18T17:23:47.831Z,99935.28
2023-03-18T17:26:17.509Z,99926.56
2023-03-18T17:28:50.062Z,99928.69
2023-03-18T17:31:20.766Z,99921.28
2023-03-18T17:33:50.594Z,99929.03
2023-03-18T17:36:20.745Z,99927.22
2023-03-18T17:38:51.884Z,99930.00
2023-03-18T17:41:21.938Z,99930.69
2023-03-18T17:43:52.143Z,99934.25
2023-03-18T17:46:21.841Z,99932.66
2023-03-18T17:48:51.893Z,99934.00
2023-03-18T17:51:24.734Z,99928.66
2023-03-18T17:53:59.363Z,99937.31
2023-03-18T17:56:29.070Z,99936.38
2023-03-18T17:58:58.958Z,99936.97
2023-03-18T18:01:30.343Z,99934.78
2023-03-18T18:04:01.812Z,99931.78
2023-03-18T18:06:32.217Z,99936.66
2023-03-18T18:09:02.461Z,99935.06
2023-03-18T18:11:38.100Z,99928.03
2023-03-18T18:14:26.266Z,99935.56
2023-03-18T18:16:56.994Z,99927.34
2023-03-18T18:19:25.430Z,99928.84
2023-03-18T18:21:55.337Z,99923.84
2023-03-18T18:24:29.897Z,99930.66
2023-03-18T18:26:58.460Z,99933.59
2023-03-18T18:29:29.780Z,99932.16
2023-03-18T18:31:58.036Z,99935.63
2023-03-18T18:34:28.461Z,99937.25
2023-03-18T18:36:58.900Z,99949.16
2023-03-18T18:39:28.708Z,99945.84
2023-03-18T18:41:58.187Z,99941.50
2023-03-18T18:44:28.586Z,99942.91
2023-03-18T18:46:58.246Z,99947.69
2023-03-18T18:49:26.092Z,99947.38
2023-03-18T18:51:56.970Z,99945.91
2023-03-18T18:54:26.624Z,99952.22
2023-03-18T18:56:57.579Z,99949.34
2023-03-18T18:59:35.072Z,99952.50
2023-03-18T19:02:37.572Z,99957.69
2023-03-18T19:05:08.270Z,99953.28
2023-03-18T19:07:39.893Z,99959.41
2023-03-18T19:10:16.697Z,99952.22
2023-03-18T19:12:46.477Z,99960.47
2023-03-18T19:15:16.299Z,99959.69
2023-03-18T19:17:48.027Z,99956.25
2023-03-18T19:20:30.854Z,99956.34
2023-03-18T19:23:00.742Z,99957.94
2023-03-18T19:25:31.242Z,99956.28
2023-03-18T19:28:00.478Z,99954.41
2023-03-18T19:30:29.966Z,99948.03
2023-03-18T19:33:00.041Z,99947.28
2023-03-18T19:35:28.875Z,99953.69
2023-03-18T19:37:59.362Z,99962.94
2023-03-18T19:40:32.147Z,99957.72
2023-03-18T19:43:01.940Z,99959.91
2023-03-18T19:45:31.817Z,99953.84
2023-03-18T19:48:01.626Z,99957.81
2023-03-18T19:50:31.801Z,99953.47
2023-03-18T19:53:01.682Z,99950.47
2023-03-18T19:55:31.454Z,99956.81
2023-03-18T19:58:01.140Z,99967.00
2023-03-18T20:00:29.923Z,99954.38
2023-03-18T20:03:00.023Z,99966.53
2023-03-18T20:05:29.767Z,99961.69
2023-03-18T20:07:59.424Z,99967.91
2023-03-18T20:10:27.361Z,99973.94
2023-03-18T20:12:57.820Z,99971.09
2023-03-18T20:15:29.471Z,99970.25
2023-03-18T20:18:00.740Z,99974.19
2023-03-18T20:20:34.550Z,99969.13
2023-03-18T20:23:08.295Z,99974.31
2023-03-18T20:25:44.062Z,99971.13
2023-03-18T20:28:24.535Z,99962.53
2023-03-18T20:30:56.509Z,99966.91
2023-03-18T20:33:26.134Z,99965.69
2023-03-18T20:35:56.277Z,99963.84
2023-03-18T20:38:39.666Z,99969.19
2023-03-18T20:41:17.902Z,99960.72
2023-03-18T20:43:50.234Z,99964.16
2023-03-18T20:46:19.996Z,99966.59
2023-03-18T20:48:50.012Z,99966.81
2023-03-18T20:51:27.873Z,99974.81
2023-03-18T20:53:58.074Z,99977.84
2023-03-18T20:56:27.703Z,99971.25
2023-03-18T20:58:57.172Z,99974.06
2023-03-18T21:01:25.929Z,99981.59
2023-03-18T21:03:55.027Z,99973.19
2023-03-18T21:06:23.766Z,99977.63
2023-03-18T21:08:53.237Z,99974.19
2023-03-18T21:11:30.579Z,99979.03
2023-03-18T21:14:00.900Z,99976.50
2023-03-18T21:16:29.762Z,99984.38
2023-03-18T21:18:59.575Z,99974.72
2023-03-18T21:21:38.380Z,99979.13
2023-03-18T21:24:26.774Z,99975.34
2023-03-18T21:27:04.249Z,99977.78
2023-03-18T21:29:34.339Z,99974.72
2023-03-18T21:32:03.211Z,99976.13
2023-03-18T21:34:32.679Z,99968.28
2023-03-18T21:37:02.280Z,99970.88
2023-03-18T21:39:32.522Z,99977.34
2023-03-18T21:42:02.011Z,99963.78
2023-03-18T21:44:31.514Z,99963.34
2023-03-18T21:47:01.339Z,99971.16
2023-03-18T21:49:30.820Z,99967.56
2023-03-18T21:52:00.317Z,99961.50
2023-03-18T21:54:30.050Z,99962.13
2023-03-18T21:56:59.536Z,99968.16
2023-03-18T21:59:29.043Z,99971.13
2023-03-18T22:01:58.514Z,99964.47
2023-03-18T22:04:27.994Z,99959.72
2023-03-18T22:06:57.675Z,99964.78
2023-03-18T22:09:28.385Z,99963.53
2023-03-18T22:11:58.443Z,99959.66
2023-03-18T22:14:28.130Z,99969.47
2023-03-18T22:16:57.753Z,99961.34
2023-03-18T22:19:27.532Z,99963.53
2023-03-18T22:21:57.184Z,99966.91
2023-03-18T22:24:26.894Z,99966.38
2023-03-18T22:26:57.304Z,99958.25
2023-03-18T22:29:26.963Z,99966.44
2023-03-18T22:31:56.578Z,99959.69
2023-03-18T22:34:27.293Z,99962.78
2023-03-18T22:36:56.866Z,99964.59
2023-03-18T22:39:26.669Z,99958.38
2023-03-18T22:41:56.285Z,99967.50
2023-03-18T22:44:26.182Z,99963.50
2023-03-18T22:46:55.889Z,99965.88
2023-03-18T22:49:25.504Z,99964.34
2023-03-18T22:51:55.095Z,99956.00
2023-03-18T22:54:26.411Z,99962.53
2023-03-18T22:56:58.366Z,99966.50
2023-03-18T22:59:28.299Z,99968.59
2023-03-18T23:01:58.489Z,99973.03
2023-03-18T23:04:30.268Z,99977.09
2023-03-18T23:06:59.798Z,99979.88
2023-03-18T23:09:29.339Z,99980.06
2023-03-18T23:11:58.928Z,99985.41
2023-03-18T23:14:28.635Z,99982.31
2023-03-18T23:16:58.161Z,99986.56
2023-03-18T23:19:26.933Z,99988.09
2023-03-18T23:21:55.822Z,99987.34
2023-03-18T23:24:24.594Z,99992.19
2023-03-18T23:26:54.125Z,99975.97
2023-03-18T23:29:23.705Z,99989.16
2023-03-18T23:31:53.332Z,99991.13
2023-03-18T23:34:22.049Z,99988.59
2023-03-18T23:36:52.107Z,99989.50
2023-03-18T23:39:21.610Z,99979.97
2023-03-18T23:41:50.505Z,99973.59
2023-03-18T23:44:19.494Z,99984.91
2023-03-18T23:46:49.146Z,99986.88
2023-03-18T23:49:18.328Z,99989.63
2023-03-18T23:51:47.095Z,99986.41
2023-03-18T23:54:15.028Z,99983.06
2023-03-18T23:56:42.896Z,99987.72
2023-03-18T23:59:11.700Z,99983.94
